Time;durP1;ratioP1;P1;durP2;ratioP2;P2;SDS_P1;SDS_P2;PMS_P1;PMS_P2;Temp;Humidity;BMP_temperature;BMP_pressure;BME280_temperature;BME280_humidity;BME280_pressure;Samples;Min_cycle;Max_cycle;Signal;HPM_P1;HPM_P2
2021/07/05 00:02:24;;;;;;;7.82;3.88;;;589.50;1894.40;;;;;;5033566;28;20087;-74
2021/07/05 00:04:50;;;;;;;8.80;4.72;;;589.50;1894.40;;;;;;5033767;28;20028;-74
2021/07/05 00:07:17;;;;;;;6.65;3.75;;;589.50;1894.40;;;;;;5033412;28;20026;-73
2021/07/05 00:09:43;;;;;;;5.68;3.72;;;589.50;1894.40;;;;;;5033750;28;20466;-74
2021/07/05 00:12:09;;;;;;;7.15;3.30;;;589.50;1894.40;;;;;;5033281;28;20488;-74
2021/07/05 00:14:36;;;;;;;10.00;3.67;;;589.50;1894.40;;;;;;5034173;28;20021;-75
2021/07/05 00:17:02;;;;;;;5.70;3.65;;;589.50;1894.40;;;;;;5033141;28;20060;-73
2021/07/05 00:19:28;;;;;;;5.07;3.55;;;589.50;1920.00;;;;;;5033260;28;20025;-74
2021/07/05 00:21:54;;;;;;;6.53;3.70;;;589.50;1894.40;;;;;;5033501;28;20053;-74
2021/07/05 00:24:20;;;;;;;5.07;3.50;;;589.40;1920.00;;;;;;5033234;28;20021;-74
2021/07/05 00:26:47;;;;;;;4.22;2.97;;;589.30;1920.00;;;;;;5033476;28;20029;-73
2021/07/05 00:29:13;;;;;;;3.97;3.00;;;589.30;1894.40;;;;;;5033306;28;20021;-74
2021/07/05 00:31:39;;;;;;;6.10;3.40;;;589.30;1894.40;;;;;;5033532;28;20049;-73
2021/07/05 00:34:06;;;;;;;5.93;3.65;;;589.40;1920.00;;;;;;5033483;28;20029;-73
2021/07/05 00:36:32;;;;;;;5.78;3.17;;;589.30;1920.00;;;;;;5033001;28;20045;-74
2021/07/05 00:38:57;;;;;;;6.57;4.05;;;589.20;1920.00;;;;;;5036705;28;20470;-74
2021/07/05 00:41:24;;;;;;;5.32;3.80;;;589.20;1945.60;;;;;;5037220;28;20033;-74
2021/07/05 00:43:50;;;;;;;4.68;3.28;;;589.10;1945.60;;;;;;5037340;28;20026;-73
2021/07/05 00:46:16;;;;;;;6.15;3.55;;;589.10;1945.60;;;;;;5037048;28;20394;-73
2021/07/05 00:48:42;;;;;;;4.93;3.70;;;589.20;1945.60;;;;;;5037071;28;20064;-73
2021/07/05 00:51:08;;;;;;;10.88;7.07;;;589.20;1945.60;;;;;;5036984;28;20047;-73
2021/07/05 00:53:34;;;;;;;9.27;6.75;;;589.20;1945.60;;;;;;5036898;28;20109;-73
2021/07/05 00:56:00;;;;;;;11.45;7.05;;;589.20;1945.60;;;;;;5036921;28;20045;-74
2021/07/05 00:58:25;;;;;;;8.70;5.45;;;589.20;1971.20;;;;;;5037033;28;20049;-74
2021/07/05 01:00:51;;;;;;;6.70;5.30;;;589.20;1971.20;;;;;;5036291;28;20041;-73
2021/07/05 01:03:17;;;;;;;6.40;5.00;;;589.20;1971.20;;;;;;5036622;28;20101;-74
2021/07/05 01:05:44;;;;;;;5.15;4.15;;;589.10;1971.20;;;;;;5036974;28;20025;-73
2021/07/05 01:08:10;;;;;;;6.75;4.38;;;589.20;1971.20;;;;;;5035929;28;20132;-73
2021/07/05 01:10:36;;;;;;;4.40;2.90;;;589.10;1971.20;;;;;;5036742;28;20536;-74
2021/07/05 01:13:03;;;;;;;4.80;3.42;;;589.00;1971.20;;;;;;5036674;28;20028;-74
2021/07/05 01:15:31;;;;;;;6.88;3.50;;;589.00;1971.20;;;;;;5036577;28;20033;-73
2021/07/05 01:17:58;;;;;;;6.50;3.58;;;589.00;1971.20;;;;;;5036596;28;20025;-73
2021/07/05 01:20:27;;;;;;;5.38;2.85;;;588.80;1971.20;;;;;;5036554;28;20028;-74
2021/07/05 01:22:53;;;;;;;6.47;3.03;;;564.10;1996.80;;;;;;5036579;28;20021;-74
2021/07/05 01:25:23;;;;;;;7.90;4.00;;;564.10;2022.40;;;;;;5036605;28;20117;-73
2021/07/05 01:27:49;;;;;;;7.82;3.88;;;564.00;2073.60;;;;;;5036539;28;20021;-73
2021/07/05 01:30:17;;;;;;;5.30;3.90;;;564.00;2099.20;;;;;;5036438;28;20427;-74
2021/07/05 01:32:47;;;;;;;6.80;3.97;;;563.90;2124.80;;;;;;5036195;28;20026;-73
2021/07/05 01:35:14;;;;;;;7.38;3.70;;;563.80;2176.00;;;;;;5036265;28;20108;-73
2021/07/05 01:37:41;;;;;;;5.10;3.40;;;563.70;2176.00;;;;;;5035982;28;20029;-74
2021/07/05 01:40:11;;;;;;;6.07;4.22;;;563.60;2150.40;;;;;;5036195;28;20026;-74
2021/07/05 01:42:37;;;;;;;4.38;3.38;;;563.50;2150.40;;;;;;5036298;28;20057;-75
2021/07/05 01:45:03;;;;;;;9.10;3.72;;;563.50;2124.80;;;;;;5036081;28;20540;-73
2021/07/05 01:47:29;;;;;;;5.82;3.78;;;563.50;2099.20;;;;;;5036156;28;20021;-73
2021/07/05 01:49:55;;;;;;;5.78;3.58;;;563.50;2099.20;;;;;;5035725;28;20095;-74
2021/07/05 01:52:21;;;;;;;6.15;4.13;;;563.50;2073.60;;;;;;5035880;28;20029;-72
2021/07/05 01:54:46;;;;;;;5.03;3.83;;;563.50;2099.20;;;;;;5035927;28;20045;-73
2021/07/05 01:57:24;;;;;;;5.70;3.78;;;563.50;2099.20;;;;;;5036252;28;20107;-74
2021/07/05 01:59:55;;;;;;;5.63;3.95;;;563.50;2099.20;;;;;;5035985;28;20017;-74
2021/07/05 02:02:22;;;;;;;8.93;4.53;;;563.60;2099.20;;;;;;5035998;28;20075;-74
2021/07/05 02:04:48;;;;;;;7.32;4.07;;;563.60;2073.60;;;;;;5035977;28;20044;-73
2021/07/05 02:07:14;;;;;;;6.50;3.58;;;563.50;2099.20;;;;;;5035915;28;20026;-74
2021/07/05 02:09:41;;;;;;;6.47;4.22;;;563.50;2150.40;;;;;;5035620;28;20087;-73
2021/07/05 02:12:08;;;;;;;7.18;4.55;;;563.60;2150.40;;;;;;5035756;28;20465;-75
2021/07/05 02:14:34;;;;;;;5.70;4.35;;;563.60;2176.00;;;;;;5035905;28;20017;-74
2021/07/05 02:17:00;;;;;;;5.90;4.28;;;563.60;2201.60;;;;;;5017859;28;20076;-73
2021/07/05 02:19:26;;;;;;;5.10;3.88;;;563.50;2201.60;;;;;;5017758;28;20064;-73
2021/07/05 02:21:52;;;;;;;6.88;4.25;;;563.40;2227.20;;;;;;5035353;28;20049;-74
2021/07/05 02:24:19;;;;;;;5.75;4.28;;;563.40;2227.20;;;;;;5035262;28;20430;-74
2021/07/05 02:26:45;;;;;;;8.52;4.43;;;563.40;2227.20;;;;;;5035616;28;20497;-74
2021/07/05 02:29:11;;;;;;;6.57;4.68;;;563.40;2227.20;;;;;;5037821;28;20029;-76
2021/07/05 02:31:37;;;;;;;5.18;3.95;;;563.40;2227.20;;;;;;5041134;28;20119;-73
2021/07/05 02:34:04;;;;;;;4.57;3.60;;;563.50;2227.20;;;;;;5041040;28;20040;-74
2021/07/05 02:36:29;;;;;;;8.10;4.78;;;563.40;2227.20;;;;;;5039654;28;20486;-75
2021/07/05 02:38:56;;;;;;;8.70;4.53;;;563.40;2227.20;;;;;;5035025;28;20028;-74
2021/07/05 02:41:21;;;;;;;7.28;4.65;;;563.30;2227.20;;;;;;5017344;28;20041;-74
2021/07/05 02:43:47;;;;;;;10.45;7.20;;;563.20;2227.20;;;;;;5035157;28;20017;-74
2021/07/05 02:46:13;;;;;;;9.02;5.75;;;563.20;2227.20;;;;;;5035166;28;20029;-72
2021/07/05 02:48:41;;;;;;;9.40;6.15;;;563.30;2227.20;;;;;;5035079;28;20056;-76
2021/07/05 02:51:08;;;;;;;7.03;5.63;;;563.30;2227.20;;;;;;5034997;28;20094;-73
2021/07/05 02:53:36;;;;;;;9.63;5.65;;;563.30;2227.20;;;;;;5034593;28;20017;-73
2021/07/05 02:56:03;;;;;;;6.20;5.20;;;563.40;2227.20;;;;;;5034660;28;20117;-74
2021/07/05 02:58:29;;;;;;;5.22;4.28;;;563.30;2201.60;;;;;;5034555;28;20032;-73
2021/07/05 03:00:58;;;;;;;5.82;5.03;;;563.40;2176.00;;;;;;5034267;28;20026;-74
2021/07/05 03:03:24;;;;;;;5.72;4.82;;;563.40;2176.00;;;;;;5034965;28;20032;-74
2021/07/05 03:05:50;;;;;;;8.32;4.00;;;563.40;2176.00;;;;;;5034856;28;20018;-75
2021/07/05 03:08:16;;;;;;;9.95;4.43;;;563.50;2176.00;;;;;;5034334;28;20021;-74
2021/07/05 03:10:43;;;;;;;5.75;4.40;;;563.50;2176.00;;;;;;5034382;28;20593;-73
2021/07/05 03:13:16;;;;;;;5.53;4.88;;;563.50;2176.00;;;;;;5034825;28;20108;-73
2021/07/05 03:15:43;;;;;;;6.57;5.80;;;563.50;2176.00;;;;;;5034342;28;20524;-73
2021/07/05 03:18:09;;;;;;;5.55;5.00;;;563.50;2176.00;;;;;;5034551;28;20101;-73
2021/07/05 03:20:45;;;;;;;8.73;4.95;;;563.50;2176.00;;;;;;5034365;28;20029;-73
2021/07/05 03:23:13;;;;;;;6.85;4.35;;;563.50;2176.00;;;;;;5034115;28;20045;-74
2021/07/05 03:25:39;;;;;;;7.07;4.25;;;563.60;2176.00;;;;;;5034181;28;20060;-74
2021/07/05 03:28:08;;;;;;;7.10;4.07;;;563.60;2176.00;;;;;;5033921;28;20030;-73
2021/07/05 03:30:36;;;;;;;7.13;4.82;;;563.60;2176.00;;;;;;5033988;28;20389;-74
2021/07/05 03:33:02;;;;;;;5.53;3.95;;;563.60;2201.60;;;;;;5034119;28;20112;-74
2021/07/05 03:35:28;;;;;;;11.43;5.35;;;563.80;2201.60;;;;;;5034897;28;20516;-74
2021/07/05 03:37:55;;;;;;;7.97;4.70;;;563.70;2176.00;;;;;;5034797;28;20021;-73
2021/07/05 03:40:24;;;;;;;6.75;4.45;;;563.60;2176.00;;;;;;5034060;28;20031;-73
2021/07/05 03:42:51;;;;;;;10.27;5.07;;;563.70;2176.00;;;;;;5034143;28;20045;-74
2021/07/05 03:45:19;;;;;;;8.95;4.90;;;563.70;2176.00;;;;;;5033623;28;20075;-74
2021/07/05 03:47:45;;;;;;;7.72;4.43;;;563.70;2201.60;;;;;;5033785;28;20032;-73
2021/07/05 03:50:12;;;;;;;8.40;4.18;;;563.60;2176.00;;;;;;5033390;28;20466;-73
2021/07/05 03:52:38;;;;;;;6.85;3.38;;;563.60;2176.00;;;;;;5034006;28;20108;-74
2021/07/05 03:55:07;;;;;;;9.30;4.40;;;563.60;2176.00;;;;;;5033546;28;20022;-74
2021/07/05 03:57:34;;;;;;;5.03;3.30;;;563.60;2150.40;;;;;;5033771;28;20428;-73
2021/07/05 04:00:00;;;;;;;6.28;4.32;;;563.60;2150.40;;;;;;5033550;28;20092;-73
2021/07/05 04:02:26;;;;;;;8.93;4.60;;;563.60;2150.40;;;;;;5033927;28;20171;-73
2021/07/05 04:04:54;;;;;;;9.02;5.28;;;563.60;2176.00;;;;;;5033434;28;20025;-73
2021/07/05 04:07:21;;;;;;;9.57;5.07;;;563.50;2201.60;;;;;;5034146;28;20032;-73
2021/07/05 04:09:47;;;;;;;6.32;4.60;;;563.50;2201.60;;;;;;5033405;28;20044;-74
2021/07/05 04:12:16;;;;;;;9.60;5.22;;;563.50;2201.60;;;;;;5033351;28;20381;-73
2021/07/05 04:14:41;;;;;;;11.63;6.03;;;563.50;2201.60;;;;;;5033230;28;20064;-73
2021/07/05 04:17:07;;;;;;;7.32;4.60;;;563.50;2201.60;;;;;;5033354;28;20057;-74
2021/07/05 04:19:33;;;;;;;10.63;5.30;;;563.50;2201.60;;;;;;5033125;28;20449;-73
2021/07/05 04:22:00;;;;;;;7.45;4.55;;;563.50;2176.00;;;;;;5034083;28;20089;-73
2021/07/05 04:24:25;;;;;;;7.05;4.80;;;563.40;2176.00;;;;;;5039467;28;20039;-74
2021/07/05 04:26:51;;;;;;;8.07;4.65;;;563.40;2201.60;;;;;;5049441;28;20049;-75
2021/07/05 04:29:17;;;;;;;6.93;5.35;;;563.30;2201.60;;;;;;5051788;28;20025;-73
2021/07/05 04:31:43;;;;;;;8.75;4.65;;;563.40;2201.60;;;;;;5046977;28;20022;-78
2021/07/05 04:34:09;;;;;;;9.32;4.50;;;563.40;2227.20;;;;;;5050567;28;20030;-75
2021/07/05 04:36:35;;;;;;;6.13;4.63;;;563.30;2227.20;;;;;;5053199;28;20044;-73
2021/07/05 04:39:06;;;;;;;9.80;4.80;;;563.50;2227.20;;;;;;5053109;28;20026;-75
2021/07/05 04:41:33;;;;;;;15.20;5.70;;;563.30;2227.20;;;;;;5035030;28;20053;-74
2021/07/05 04:43:58;;;;;;;9.88;5.35;;;563.40;2227.20;;;;;;5034783;28;20017;-73
2021/07/05 04:46:25;;;;;;;8.07;5.28;;;563.50;2201.60;;;;;;5033502;28;20116;-73
2021/07/05 04:48:54;;;;;;;12.23;5.20;;;563.50;2252.80;;;;;;5033041;28;20030;-74
2021/07/05 04:51:20;;;;;;;10.05;5.72;;;563.50;2304.00;;;;;;5033021;28;20112;-73
2021/07/05 04:53:46;;;;;;;10.23;6.28;;;563.50;2304.00;;;;;;5032999;28;20064;-74
2021/07/05 04:56:12;;;;;;;9.07;5.60;;;563.50;2329.60;;;;;;5033189;28;20069;-72
2021/07/05 04:58:37;;;;;;;7.50;5.80;;;563.60;2355.20;;;;;;5032871;28;20056;-73
2021/07/05 05:01:04;;;;;;;13.25;6.18;;;563.70;2380.80;;;;;;5032926;28;20037;-72
2021/07/05 05:03:31;;;;;;;7.43;5.15;;;563.80;2380.80;;;;;;5033104;28;20018;-74
2021/07/05 05:05:57;;;;;;;8.50;6.15;;;563.80;2380.80;;;;;;5032730;28;20026;-75
2021/07/05 05:08:24;;;;;;;9.68;5.63;;;563.90;2355.20;;;;;;5032941;28;20079;-74
2021/07/05 05:10:49;;;;;;;6.68;4.50;;;563.90;2355.20;;;;;;5032945;28;20030;-73
2021/07/05 05:13:15;;;;;;;7.50;4.50;;;564.00;2355.20;;;;;;5032981;28;20497;-74
2021/07/05 05:15:42;;;;;;;11.32;6.35;;;563.90;2380.80;;;;;;5035973;28;20037;-74
2021/07/05 05:18:08;;;;;;;7.53;5.00;;;563.90;2406.40;;;;;;5044077;28;20105;-75
2021/07/05 05:20:34;;;;;;;10.63;4.78;;;564.00;2329.60;;;;;;5044559;28;20034;-75
2021/07/05 05:23:00;;;;;;;10.98;5.65;;;564.00;2355.20;;;;;;5048942;28;20053;-74
2021/07/05 05:25:25;;;;;;;7.53;5.15;;;563.90;2304.00;;;;;;5047808;28;20029;-74
2021/07/05 05:27:52;;;;;;;8.00;5.97;;;564.00;2329.60;;;;;;5042520;28;20088;-74
2021/07/05 05:30:20;;;;;;;9.93;6.65;;;564.00;2355.20;;;;;;5049806;28;20021;-73
2021/07/05 05:32:48;;;;;;;13.07;6.32;;;564.00;2329.60;;;;;;5051015;28;20481;-75
2021/07/05 05:35:16;;;;;;;7.35;5.55;;;564.10;2329.60;;;;;;5049772;28;20041;-75
2021/07/05 05:37:42;;;;;;;11.85;6.38;;;564.10;2304.00;;;;;;5046414;28;20033;-75
2021/07/05 05:40:08;;;;;;;12.02;7.22;;;564.10;2304.00;;;;;;5047951;28;20048;-75
2021/07/05 05:42:35;;;;;;;11.10;6.15;;;588.80;2278.40;;;;;;5042008;28;20033;-74
2021/07/05 05:45:01;;;;;;;8.40;5.75;;;588.80;2278.40;;;;;;5044339;28;20377;-75
2021/07/05 05:47:30;;;;;;;11.57;6.45;;;588.80;2304.00;;;;;;5048216;28;20055;-74
2021/07/05 05:49:55;;;;;;;8.93;6.50;;;588.90;2329.60;;;;;;5048686;28;20054;-74
2021/07/05 05:52:21;;;;;;;11.07;6.00;;;588.90;2329.60;;;;;;5050689;28;20026;-74
2021/07/05 05:54:47;;;;;;;12.85;7.43;;;589.00;2329.60;;;;;;5047942;28;20538;-76
2021/07/05 05:57:25;;;;;;;11.80;6.55;;;589.00;2304.00;;;;;;5038912;28;20095;-75
2021/07/05 05:59:58;;;;;;;9.27;6.60;;;589.00;2304.00;;;;;;5038213;28;20417;-75
2021/07/05 06:02:25;;;;;;;7.30;4.65;;;589.10;2304.00;;;;;;5036794;28;20048;-75
2021/07/05 06:04:51;;;;;;;6.95;4.63;;;589.20;2227.20;;;;;;5036523;28;20037;-73
2021/07/05 06:07:17;;;;;;;8.88;5.55;;;589.10;2073.60;;;;;;5035842;28;20022;-74
2021/07/05 06:09:43;;;;;;;15.27;5.82;;;589.30;2150.40;;;;;;5035993;28;20036;-74
2021/07/05 06:12:09;;;;;;;11.48;6.40;;;589.30;2227.20;;;;;;5035807;28;20021;-73
2021/07/05 06:14:35;;;;;;;10.77;6.82;;;589.30;2252.80;;;;;;5035956;28;20087;-74
2021/07/05 06:17:01;;;;;;;7.28;6.07;;;589.40;2278.40;;;;;;5035905;28;20073;-74
2021/07/05 06:19:30;;;;;;;12.20;5.63;;;589.40;2252.80;;;;;;5035705;28;20024;-74
2021/07/05 06:21:56;;;;;;;9.38;5.45;;;589.50;2278.40;;;;;;5038901;28;20096;-74
2021/07/05 06:24:21;;;;;;;7.30;6.25;;;589.60;2227.20;;;;;;5035490;28;20036;-74
2021/07/05 06:26:47;;;;;;;7.53;5.15;;;589.70;2227.20;;;;;;5035370;28;20034;-74
2021/07/05 06:29:14;;;;;;;7.13;4.72;;;614.40;2150.40;;;;;;5036006;28;20366;-73
2021/07/05 06:31:41;;;;;;;10.38;5.75;;;614.40;2150.40;;;;;;5035712;28;20120;-76
2021/07/05 06:34:07;;;;;;;7.78;5.30;;;614.60;2124.80;;;;;;5035256;28;20032;-74
2021/07/05 06:36:35;;;;;;;8.00;5.20;;;614.70;2099.20;;;;;;5034701;28;20389;-73
2021/07/05 06:39:01;;;;;;;8.52;4.63;;;614.70;2073.60;;;;;;5035366;28;20371;-73
2021/07/05 06:41:27;;;;;;;7.47;4.57;;;614.70;2073.60;;;;;;5034980;28;20474;-73
2021/07/05 06:43:53;;;;;;;8.38;4.80;;;614.80;2073.60;;;;;;5034859;28;20028;-73
2021/07/05 06:46:21;;;;;;;10.82;4.97;;;614.80;2124.80;;;;;;5035392;28;20567;-73
2021/07/05 06:48:47;;;;;;;7.28;5.60;;;614.80;2124.80;;;;;;5035342;28;20462;-74
2021/07/05 06:51:12;;;;;;;9.00;5.03;;;615.00;2099.20;;;;;;5035299;28;20034;-74
2021/07/05 06:53:38;;;;;;;25.63;7.38;;;615.10;2099.20;;;;;;5035194;28;20105;-76
2021/07/05 06:56:04;;;;;;;8.45;5.35;;;615.10;2124.80;;;;;;5034510;28;20046;-74
2021/07/05 06:58:30;;;;;;;10.80;6.82;;;615.20;2124.80;;;;;;5035867;28;20026;-73
2021/07/05 07:00:58;;;;;;;7.60;5.72;;;615.20;2073.60;;;;;;5035321;28;20504;-73
2021/07/05 07:03:25;;;;;;;8.57;4.70;;;615.30;2048.00;;;;;;5034685;28;20485;-74
2021/07/05 07:05:51;;;;;;;6.00;4.95;;;640.00;1996.80;;;;;;5034803;28;20029;-74
2021/07/05 07:08:17;;;;;;;8.73;5.93;;;640.10;1996.80;;;;;;5017008;28;20440;-74
2021/07/05 07:10:42;;;;;;;8.02;4.20;;;640.20;1996.80;;;;;;5034349;28;20424;-73
2021/07/05 07:13:09;;;;;;;9.80;5.07;;;640.30;1996.80;;;;;;5034767;28;20080;-73
2021/07/05 07:15:38;;;;;;;7.93;5.88;;;640.40;1945.60;;;;;;5034667;28;20037;-73
2021/07/05 07:20:48;;;;;;;14.70;6.22;;;640.60;1996.80;;;;;;5046899;28;20056;-74
2021/07/05 07:23:14;;;;;;;7.05;5.43;;;640.70;2022.40;;;;;;5046700;28;20025;-76
2021/07/05 07:25:40;;;;;;;9.65;6.75;;;640.80;1945.60;;;;;;5048719;28;20057;-74
2021/07/05 07:28:05;;;;;;;8.55;5.75;;;640.90;1945.60;;;;;;5048147;28;20506;-74
2021/07/05 07:30:31;;;;;;;6.55;5.03;;;665.60;1945.60;;;;;;5037708;28;20401;-74
2021/07/05 07:32:57;;;;;;;11.02;5.07;;;665.70;1920.00;;;;;;5034798;28;20033;-74
2021/07/05 07:35:22;;;;;;;10.60;5.10;;;665.80;1920.00;;;;;;5034410;28;21901;-73
2021/07/05 07:37:50;;;;;;;8.90;4.72;;;666.00;1920.00;;;;;;5034255;28;20127;-74
2021/07/05 07:40:38;;;;;;;9.95;5.53;;;666.20;1894.40;;;;;;5034314;28;20022;-75
2021/07/05 07:43:04;;;;;;;10.15;5.53;;;666.30;1894.40;;;;;;5034077;28;20029;-74
2021/07/05 07:45:29;;;;;;;6.57;4.47;;;666.50;1894.40;;;;;;5033994;28;20022;-74
2021/07/05 07:47:55;;;;;;;5.00;4.15;;;691.30;1843.20;;;;;;5034267;28;20116;-74
2021/07/05 07:50:22;;;;;;;5.18;4.60;;;691.30;1766.40;;;;;;5034146;28;20498;-74
2021/07/05 07:52:48;;;;;;;5.03;4.22;;;691.30;1792.00;;;;;;5034143;28;20029;-74
2021/07/05 07:55:17;;;;;;;5.00;3.50;;;691.30;1740.80;;;;;;5033511;28;20085;-74
2021/07/05 07:57:44;;;;;;;5.18;3.55;;;666.50;1740.80;;;;;;5033688;28;20041;-74
2021/07/05 08:00:14;;;;;;;5.45;4.18;;;666.50;1740.80;;;;;;5033796;28;20029;-74
2021/07/05 08:02:41;;;;;;;5.07;3.67;;;666.40;1715.20;;;;;;5033815;28;20025;-73
2021/07/05 08:05:08;;;;;;;7.78;3.70;;;666.40;1740.80;;;;;;5034043;28;20025;-74
2021/07/05 08:07:36;;;;;;;5.35;3.53;;;666.30;1715.20;;;;;;5033624;28;20025;-74
2021/07/05 08:10:04;;;;;;;6.43;4.28;;;666.40;1740.80;;;;;;5033431;28;20029;-73
2021/07/05 08:12:30;;;;;;;5.40;3.50;;;666.50;1740.80;;;;;;5033627;28;20112;-73
2021/07/05 08:14:56;;;;;;;7.55;3.83;;;691.30;1715.20;;;;;;5033622;28;20022;-74
2021/07/05 08:17:22;;;;;;;6.55;3.65;;;691.40;1740.80;;;;;;5033541;28;20040;-74
2021/07/05 08:19:48;;;;;;;5.90;4.05;;;691.40;1689.60;;;;;;5033826;28;20021;-75
2021/07/05 08:22:13;;;;;;;5.75;3.83;;;691.60;1689.60;;;;;;5033925;28;20028;-74
2021/07/05 08:24:40;;;;;;;5.57;3.83;;;691.70;1689.60;;;;;;5033673;28;20037;-74
2021/07/05 08:27:05;;;;;;;5.78;4.30;;;691.90;1664.00;;;;;;5033826;28;20026;-74
2021/07/05 08:29:31;;;;;;;5.45;4.03;;;692.00;1664.00;;;;;;5033468;28;20042;-74
2021/07/05 08:31:58;;;;;;;4.25;3.33;;;716.80;1664.00;;;;;;5033535;28;20367;-74
2021/07/05 08:34:24;;;;;;;4.05;3.42;;;716.80;1638.40;;;;;;5036103;28;20078;-74
2021/07/05 08:36:50;;;;;;;4.45;3.58;;;716.90;1612.80;;;;;;5036446;28;20085;-73
2021/07/05 08:39:16;;;;;;;4.50;3.63;;;716.90;1638.40;;;;;;5036035;28;20033;-75
2021/07/05 08:41:41;;;;;;;9.18;3.85;;;716.90;1587.20;;;;;;5033744;28;20025;-75
2021/07/05 08:44:08;;;;;;;4.25;3.22;;;717.20;1612.80;;;;;;5033279;28;20537;-75
2021/07/05 08:46:34;;;;;;;6.13;3.83;;;717.30;1612.80;;;;;;5033308;28;20151;-73
2021/07/05 08:49:01;;;;;;;4.68;3.63;;;717.40;1587.20;;;;;;5033102;28;20083;-75
2021/07/05 08:51:27;;;;;;;9.10;3.88;;;717.40;1612.80;;;;;;5033121;28;20043;-76
2021/07/05 08:53:53;;;;;;;9.75;4.97;;;717.40;1587.20;;;;;;5033153;28;20022;-73
2021/07/05 08:56:21;;;;;;;6.72;4.80;;;717.30;1587.20;;;;;;5032937;28;20038;-74
2021/07/05 08:58:48;;;;;;;11.05;4.45;;;717.20;1664.00;;;;;;5034700;28;20120;-73
2021/07/05 09:01:15;;;;;;;6.45;3.90;;;717.50;1689.60;;;;;;5036924;28;20025;-73
2021/07/05 09:03:41;;;;;;;4.93;3.83;;;717.70;1638.40;;;;;;5037294;28;20385;-73
2021/07/05 09:06:11;;;;;;;6.65;3.75;;;742.50;1587.20;;;;;;5036982;28;20068;-74
2021/07/05 09:08:40;;;;;;;5.60;3.35;;;742.60;1587.20;;;;;;5036979;28;20474;-74
2021/07/05 09:11:09;;;;;;;7.35;3.63;;;742.70;1510.40;;;;;;5036791;28;20068;-76
2021/07/05 09:13:47;;;;;;;5.95;3.90;;;742.60;1510.40;;;;;;5036749;28;20446;-73
2021/07/05 09:16:31;;;;;;;6.95;3.47;;;742.70;1484.80;;;;;;5036932;28;20029;-74
2021/07/05 09:18:58;;;;;;;5.07;3.42;;;742.60;1536.00;;;;;;5036665;28;20029;-73
2021/07/05 09:21:26;;;;;;;4.70;3.45;;;742.70;1484.80;;;;;;5036477;28;20017;-73
2021/07/05 09:24:05;;;;;;;5.55;3.53;;;742.80;1536.00;;;;;;5035617;28;20045;-74
2021/07/05 09:26:42;;;;;;;6.85;4.32;;;742.90;1484.80;;;;;;5036398;28;20078;-73
2021/07/05 09:29:22;;;;;;;5.13;3.90;;;743.00;1536.00;;;;;;5036325;28;20033;-73
2021/07/05 09:31:52;;;;;;;5.03;3.72;;;743.20;1484.80;;;;;;5036278;28;20027;-74
2021/07/05 09:34:18;;;;;;;4.65;3.70;;;743.10;1459.20;;;;;;5036266;28;20041;-74
2021/07/05 09:36:44;;;;;;;4.28;3.60;;;743.30;1484.80;;;;;;5036047;28;20394;-73
2021/07/05 09:39:19;;;;;;;5.10;4.15;;;768.00;1484.80;;;;;;5036249;28;20022;-74
2021/07/05 09:41:46;;;;;;;6.60;4.32;;;768.10;1459.20;;;;;;5036153;28;20025;-74
2021/07/05 09:44:16;;;;;;;8.30;3.90;;;768.20;1433.60;;;;;;5036194;28;20117;-74
2021/07/05 09:46:52;;;;;;;6.38;4.63;;;768.40;1484.80;;;;;;5036206;28;20108;-73
2021/07/05 09:49:28;;;;;;;4.43;4.03;;;768.60;1484.80;;;;;;5035826;28;20569;-74
2021/07/05 09:52:25;;;;;;;5.35;4.60;;;768.60;1408.00;;;;;;5035855;28;20039;-74
2021/07/05 09:54:53;;;;;;;6.82;4.35;;;768.60;1433.60;;;;;;5035834;28;20028;-74
2021/07/05 09:57:27;;;;;;;7.47;4.43;;;768.90;1433.60;;;;;;5035325;28;20037;-73
2021/07/05 09:59:56;;;;;;;7.63;3.97;;;793.70;1459.20;;;;;;5035959;28;20025;-75
2021/07/05 10:02:23;;;;;;;8.23;4.70;;;794.00;1536.00;;;;;;5035947;28;20393;-73
2021/07/05 10:04:48;;;;;;;6.95;4.05;;;794.20;1484.80;;;;;;5036074;28;20022;-74
2021/07/05 10:07:15;;;;;;;6.30;4.53;;;794.30;1510.40;;;;;;5035806;28;20371;-74
2021/07/05 10:09:48;;;;;;;6.43;4.55;;;794.30;1459.20;;;;;;5035671;28;20462;-74
2021/07/05 10:12:34;;;;;;;5.78;4.03;;;794.40;1433.60;;;;;;5035127;28;20047;-74
2021/07/05 10:15:08;;;;;;;12.07;4.65;;;794.20;1433.60;;;;;;5035221;28;20029;-74
2021/07/05 10:17:42;;;;;;;5.60;4.15;;;794.20;1433.60;;;;;;5035759;28;20083;-75
2021/07/05 10:20:12;;;;;;;8.35;5.47;;;794.50;1433.60;;;;;;5035448;28;20025;-75
2021/07/05 10:22:40;;;;;;;6.78;4.55;;;793.90;1484.80;;;;;;5035420;28;20033;-74
2021/07/05 10:25:06;;;;;;;6.18;4.45;;;793.70;1484.80;;;;;;5035412;28;20021;-73
2021/07/05 10:27:34;;;;;;;8.30;4.38;;;793.60;1484.80;;;;;;5035283;28;20084;-74
2021/07/05 10:30:02;;;;;;;7.35;4.10;;;768.70;1484.80;;;;;;5035789;28;20028;-75
2021/07/05 10:32:29;;;;;;;5.00;4.30;;;768.40;1484.80;;;;;;5035301;28;20030;-74
2021/07/05 10:34:55;;;;;;;7.35;5.07;;;768.40;1459.20;;;;;;5035334;28;20017;-74
2021/07/05 10:37:36;;;;;;;7.75;4.93;;;768.10;1510.40;;;;;;5035119;28;20034;-74
2021/07/05 10:40:05;;;;;;;7.07;4.38;;;768.10;1510.40;;;;;;5035014;28;20029;-74
2021/07/05 10:42:42;;;;;;;6.35;5.72;;;768.10;1484.80;;;;;;5035225;28;20370;-75
2021/07/05 10:45:17;;;;;;;6.47;4.57;;;768.00;1510.40;;;;;;5035273;28;20021;-73
2021/07/05 10:47:53;;;;;;;6.88;4.72;;;768.00;1510.40;;;;;;5034879;28;20022;-74
2021/07/05 10:50:43;;;;;;;7.72;4.68;;;743.30;1510.40;;;;;;5034699;28;20049;-74
2021/07/05 10:53:11;;;;;;;11.73;4.88;;;743.30;1536.00;;;;;;5034977;28;20354;-74
2021/07/05 10:55:38;;;;;;;8.52;5.25;;;743.20;1536.00;;;;;;5017319;28;20034;-73
2021/07/05 10:58:15;;;;;;;7.65;4.72;;;743.10;1536.00;;;;;;5034825;28;20041;-74
2021/07/05 11:00:46;;;;;;;6.90;4.88;;;743.10;1536.00;;;;;;5034656;28;20032;-73
2021/07/05 11:03:41;;;;;;;6.50;4.97;;;743.00;1510.40;;;;;;5034834;28;20036;-74
2021/07/05 11:06:21;;;;;;;7.30;5.18;;;742.80;1536.00;;;;;;5034844;28;20025;-74
2021/07/05 11:08:50;;;;;;;6.95;4.85;;;742.80;1536.00;;;;;;5034401;28;20018;-74
2021/07/05 11:11:28;;;;;;;7.97;5.00;;;742.80;1536.00;;;;;;5034697;28;20030;-74
2021/07/05 11:14:35;;;;;;;8.13;5.28;;;742.80;1536.00;;;;;;5034372;28;20029;-73
2021/07/05 11:17:17;;;;;;;5.57;4.43;;;742.80;1536.00;;;;;;4939024;29;20405;-73
2021/07/05 11:19:47;;;;;;;;;;;742.80;1561.60;;;;;;4944533;29;20031;-76
2021/07/05 11:22:24;;;;;;;11.52;5.70;;;742.80;1561.60;;;;;;4951215;29;19974;-74
2021/07/05 11:24:56;;;;;;;7.97;6.00;;;742.70;1561.60;;;;;;4946572;29;20039;-74
2021/07/05 11:27:37;;;;;;;7.13;5.07;;;742.80;1561.60;;;;;;4952506;29;20044;-75
2021/07/05 11:30:24;;;;;;;6.03;5.43;;;742.70;1587.20;;;;;;4951471;29;20055;-74
2021/07/05 11:33:12;;;;;;;9.48;6.07;;;742.70;1536.00;;;;;;4941176;29;20445;-74
2021/07/05 11:35:44;;;;;;;6.88;4.97;;;742.70;1536.00;;;;;;4917382;29;20083;-74
2021/07/05 11:38:30;;;;;;;6.65;5.75;;;742.70;1561.60;;;;;;4916517;29;20089;-73
2021/07/05 11:41:16;;;;;;;6.25;5.07;;;742.80;1561.60;;;;;;4915971;29;20032;-75
2021/07/05 11:44:09;;;;;;;6.75;5.45;;;742.80;1536.00;;;;;;4916343;29;20039;-74
2021/07/05 11:46:34;;;;;;;7.05;5.70;;;742.80;1536.00;;;;;;4917187;29;20343;-73
2021/07/05 11:49:14;;;;;;;8.25;5.50;;;742.90;1561.60;;;;;;4953889;28;20058;-74
2021/07/05 11:51:54;;;;;;;7.82;6.15;;;743.00;1587.20;;;;;;4953905;29;20059;-73
2021/07/05 11:54:23;;;;;;;11.50;5.57;;;743.00;1536.00;;;;;;4954508;29;20046;-75
2021/07/05 11:56:52;;;;;;;10.98;6.15;;;743.00;1536.00;;;;;;4953327;29;20378;-74
2021/07/05 11:59:28;;;;;;;5.93;5.30;;;743.00;1561.60;;;;;;4953713;29;20125;-73
2021/07/05 12:02:01;;;;;;;10.15;5.60;;;743.10;1510.40;;;;;;4953563;29;20108;-73
2021/07/05 12:04:29;;;;;;;8.82;5.97;;;743.10;1510.40;;;;;;4953595;29;20089;-74
2021/07/05 12:06:55;;;;;;;11.65;5.80;;;743.30;1561.60;;;;;;4953587;29;20066;-74
2021/07/05 12:09:30;;;;;;;6.13;5.53;;;768.10;1536.00;;;;;;4953511;29;20215;-74
2021/07/05 12:11:56;;;;;;;6.90;5.30;;;768.20;1587.20;;;;;;4970268;28;20037;-74
2021/07/05 12:14:26;;;;;;;6.50;5.38;;;768.60;1510.40;;;;;;5033501;28;20040;-74
2021/07/05 12:16:55;;;;;;;8.50;5.85;;;768.60;1459.20;;;;;;5033104;28;20046;-75
2021/07/05 12:19:22;;;;;;;7.80;5.22;;;768.80;1459.20;;;;;;5033627;28;20025;-75
2021/07/05 12:21:54;;;;;;;8.02;6.32;;;793.70;1459.20;;;;;;5033596;28;20124;-74
2021/07/05 12:24:43;;;;;;;7.03;5.72;;;793.80;1459.20;;;;;;5033532;28;20056;-75
2021/07/05 12:27:17;;;;;;;7.03;5.13;;;794.00;1433.60;;;;;;5033055;28;20033;-74